sensor_id;sensor_type;location;lat;lon;timestamp;P1;durP1;ratioP1;P2;durP2;ratioP2
71187;SDS011;58893;53.130;8.158;2022-11-20T00:00:50;15.57;;;8.27;;
71187;SDS011;58893;53.130;8.158;2022-11-20T00:03:16;13.60;;;6.77;;
71187;SDS011;58893;53.130;8.158;2022-11-20T00:05:42;17.57;;;8.40;;
71187;SDS011;58893;53.130;8.158;2022-11-20T00:08:08;18.77;;;7.63;;
71187;SDS011;58893;53.130;8.158;2022-11-20T00:10:38;22.80;;;7.53;;
71187;SDS011;58893;53.130;8.158;2022-11-20T00:13:04;14.70;;;7.23;;
71187;SDS011;58893;53.130;8.158;2022-11-20T00:15:30;18.83;;;8.20;;
71187;SDS011;58893;53.130;8.158;2022-11-20T00:17:56;15.47;;;7.80;;
71187;SDS011;58893;53.130;8.158;2022-11-20T00:20:22;20.63;;;7.27;;
71187;SDS011;58893;53.130;8.158;2022-11-20T00:22:47;12.50;;;7.10;;
71187;SDS011;58893;53.130;8.158;2022-11-20T00:25:14;14.97;;;7.33;;
71187;SDS011;58893;53.130;8.158;2022-11-20T00:27:40;17.77;;;8.40;;
71187;SDS011;58893;53.130;8.158;2022-11-20T00:30:06;15.27;;;8.03;;
71187;SDS011;58893;53.130;8.158;2022-11-20T00:32:32;14.50;;;7.50;;
71187;SDS011;58893;53.130;8.158;2022-11-20T00:34:58;16.50;;;6.70;;
71187;SDS011;58893;53.130;8.158;2022-11-20T00:37:23;15.00;;;7.87;;
71187;SDS011;58893;53.130;8.158;2022-11-20T00:39:49;18.43;;;7.50;;
71187;SDS011;58893;53.130;8.158;2022-11-20T00:42:14;13.67;;;7.40;;
71187;SDS011;58893;53.130;8.158;2022-11-20T00:44:40;16.67;;;6.70;;
71187;SDS011;58893;53.130;8.158;2022-11-20T00:47:05;12.77;;;6.10;;
71187;SDS011;58893;53.130;8.158;2022-11-20T00:49:31;17.87;;;7.50;;
71187;SDS011;58893;53.130;8.158;2022-11-20T00:51:57;15.50;;;6.53;;
71187;SDS011;58893;53.130;8.158;2022-11-20T00:54:22;17.37;;;6.30;;
71187;SDS011;58893;53.130;8.158;2022-11-20T00:56:48;18.07;;;7.60;;
71187;SDS011;58893;53.130;8.158;2022-11-20T00:59:14;14.77;;;6.60;;
71187;SDS011;58893;53.130;8.158;2022-11-20T01:01:39;10.37;;;6.07;;
71187;SDS011;58893;53.130;8.158;2022-11-20T01:04:05;13.90;;;6.80;;
71187;SDS011;58893;53.130;8.158;2022-11-20T01:06:32;18.07;;;8.03;;
71187;SDS011;58893;53.130;8.158;2022-11-20T01:09:03;13.60;;;6.67;;
71187;SDS011;58893;53.130;8.158;2022-11-20T01:11:35;17.00;;;7.67;;
71187;SDS011;58893;53.130;8.158;2022-11-20T01:14:03;17.80;;;6.17;;
71187;SDS011;58893;53.130;8.158;2022-11-20T01:16:32;15.33;;;6.80;;
71187;SDS011;58893;53.130;8.158;2022-11-20T01:19:03;12.90;;;6.53;;
71187;SDS011;58893;53.130;8.158;2022-11-20T01:21:34;12.77;;;5.63;;
71187;SDS011;58893;53.130;8.158;2022-11-20T01:24:02;17.00;;;6.50;;
71187;SDS011;58893;53.130;8.158;2022-11-20T01:26:30;11.20;;;6.10;;
71187;SDS011;58893;53.130;8.158;2022-11-20T01:28:57;12.00;;;6.47;;
71187;SDS011;58893;53.130;8.158;2022-11-20T01:31:25;12.47;;;6.40;;
71187;SDS011;58893;53.130;8.158;2022-11-20T01:33:53;12.07;;;6.30;;
71187;SDS011;58893;53.130;8.158;2022-11-20T01:36:21;18.10;;;8.10;;
71187;SDS011;58893;53.130;8.158;2022-11-20T01:38:50;21.90;;;7.43;;
71187;SDS011;58893;53.130;8.158;2022-11-20T01:41:18;14.67;;;6.43;;
71187;SDS011;58893;53.130;8.158;2022-11-20T01:44:03;19.87;;;7.73;;
71187;SDS011;58893;53.130;8.158;2022-11-20T01:46:30;13.70;;;6.57;;
71187;SDS011;58893;53.130;8.158;2022-11-20T01:49:11;12.37;;;5.97;;
71187;SDS011;58893;53.130;8.158;2022-11-20T01:51:45;13.00;;;7.27;;
71187;SDS011;58893;53.130;8.158;2022-11-20T01:54:42;16.70;;;6.77;;
71187;SDS011;58893;53.130;8.158;2022-11-20T01:57:13;14.80;;;6.13;;
71187;SDS011;58893;53.130;8.158;2022-11-20T01:59:41;15.73;;;6.00;;
71187;SDS011;58893;53.130;8.158;2022-11-20T02:02:12;14.20;;;6.60;;
71187;SDS011;58893;53.130;8.158;2022-11-20T02:04:38;14.20;;;5.87;;
71187;SDS011;58893;53.130;8.158;2022-11-20T02:07:04;15.80;;;6.60;;
71187;SDS011;58893;53.130;8.158;2022-11-20T02:09:30;14.20;;;6.40;;
71187;SDS011;58893;53.130;8.158;2022-11-20T02:11:56;13.73;;;6.30;;
71187;SDS011;58893;53.130;8.158;2022-11-20T02:14:23;21.37;;;7.70;;
71187;SDS011;58893;53.130;8.158;2022-11-20T02:16:49;21.27;;;6.83;;
71187;SDS011;58893;53.130;8.158;2022-11-20T02:19:26;14.07;;;6.97;;
71187;SDS011;58893;53.130;8.158;2022-11-20T02:22:08;11.77;;;6.63;;
71187;SDS011;58893;53.130;8.158;2022-11-20T02:24:39;11.47;;;5.53;;
71187;SDS011;58893;53.130;8.158;2022-11-20T02:27:09;11.50;;;6.60;;
71187;SDS011;58893;53.130;8.158;2022-11-20T02:29:38;15.70;;;6.10;;
71187;SDS011;58893;53.130;8.158;2022-11-20T02:32:17;11.23;;;5.97;;
71187;SDS011;58893;53.130;8.158;2022-11-20T02:34:47;16.27;;;7.00;;
71187;SDS011;58893;53.130;8.158;2022-11-20T02:37:13;10.93;;;5.53;;
71187;SDS011;58893;53.130;8.158;2022-11-20T02:39:39;9.90;;;6.17;;
71187;SDS011;58893;53.130;8.158;2022-11-20T02:42:06;13.93;;;5.90;;
71187;SDS011;58893;53.130;8.158;2022-11-20T02:44:32;14.80;;;6.50;;
71187;SDS011;58893;53.130;8.158;2022-11-20T02:46:58;14.93;;;6.47;;
71187;SDS011;58893;53.130;8.158;2022-11-20T02:49:24;17.13;;;7.07;;
71187;SDS011;58893;53.130;8.158;2022-11-20T02:51:49;15.13;;;5.97;;
71187;SDS011;58893;53.130;8.158;2022-11-20T02:54:15;13.07;;;6.17;;
71187;SDS011;58893;53.130;8.158;2022-11-20T02:56:41;17.03;;;5.70;;
71187;SDS011;58893;53.130;8.158;2022-11-20T02:59:07;12.23;;;6.17;;
71187;SDS011;58893;53.130;8.158;2022-11-20T03:01:32;14.00;;;6.03;;
71187;SDS011;58893;53.130;8.158;2022-11-20T03:03:58;14.50;;;6.67;;
71187;SDS011;58893;53.130;8.158;2022-11-20T03:06:24;13.23;;;6.40;;
71187;SDS011;58893;53.130;8.158;2022-11-20T03:08:49;14.50;;;7.07;;
71187;SDS011;58893;53.130;8.158;2022-11-20T03:11:15;14.87;;;6.70;;
71187;SDS011;58893;53.130;8.158;2022-11-20T03:13:41;13.13;;;6.47;;
71187;SDS011;58893;53.130;8.158;2022-11-20T03:16:11;11.53;;;6.37;;
71187;SDS011;58893;53.130;8.158;2022-11-20T03:18:42;13.40;;;6.27;;
71187;SDS011;58893;53.130;8.158;2022-11-20T03:21:09;11.47;;;5.90;;
71187;SDS011;58893;53.130;8.158;2022-11-20T03:23:35;13.00;;;5.90;;
71187;SDS011;58893;53.130;8.158;2022-11-20T03:26:17;13.90;;;6.90;;
71187;SDS011;58893;53.130;8.158;2022-11-20T03:28:49;13.10;;;6.00;;
71187;SDS011;58893;53.130;8.158;2022-11-20T03:31:17;14.30;;;5.63;;
71187;SDS011;58893;53.130;8.158;2022-11-20T03:33:44;12.70;;;5.27;;
71187;SDS011;58893;53.130;8.158;2022-11-20T03:36:11;12.70;;;5.80;;
71187;SDS011;58893;53.130;8.158;2022-11-20T03:38:37;13.93;;;6.20;;
71187;SDS011;58893;53.130;8.158;2022-11-20T03:41:04;14.03;;;5.90;;
71187;SDS011;58893;53.130;8.158;2022-11-20T03:43:32;12.17;;;5.87;;
71187;SDS011;58893;53.130;8.158;2022-11-20T03:45:58;13.73;;;6.70;;
71187;SDS011;58893;53.130;8.158;2022-11-20T03:48:24;11.97;;;6.20;;
71187;SDS011;58893;53.130;8.158;2022-11-20T03:50:50;10.60;;;6.00;;
71187;SDS011;58893;53.130;8.158;2022-11-20T03:53:16;11.70;;;4.90;;
71187;SDS011;58893;53.130;8.158;2022-11-20T03:55:42;9.57;;;5.20;;
71187;SDS011;58893;53.130;8.158;2022-11-20T03:58:08;13.93;;;6.10;;
71187;SDS011;58893;53.130;8.158;2022-11-20T04:00:34;13.33;;;5.13;;
71187;SDS011;58893;53.130;8.158;2022-11-20T04:03:01;13.63;;;6.03;;
71187;SDS011;58893;53.130;8.158;2022-11-20T04:05:27;17.10;;;6.30;;
71187;SDS011;58893;53.130;8.158;2022-11-20T04:07:53;11.43;;;5.50;;
71187;SDS011;58893;53.130;8.158;2022-11-20T04:10:19;14.17;;;6.07;;
71187;SDS011;58893;53.130;8.158;2022-11-20T04:12:44;10.20;;;6.17;;
71187;SDS011;58893;53.130;8.158;2022-11-20T04:15:10;11.37;;;6.03;;
71187;SDS011;58893;53.130;8.158;2022-11-20T04:17:36;20.97;;;6.23;;
71187;SDS011;58893;53.130;8.158;2022-11-20T04:20:01;18.30;;;5.80;;
71187;SDS011;58893;53.130;8.158;2022-11-20T04:22:28;12.63;;;5.53;;
71187;SDS011;58893;53.130;8.158;2022-11-20T04:24:53;8.70;;;4.63;;
71187;SDS011;58893;53.130;8.158;2022-11-20T04:27:20;11.73;;;5.73;;
71187;SDS011;58893;53.130;8.158;2022-11-20T04:29:45;11.40;;;5.67;;
71187;SDS011;58893;53.130;8.158;2022-11-20T04:32:11;13.87;;;5.20;;
71187;SDS011;58893;53.130;8.158;2022-11-20T04:34:37;11.80;;;6.00;;
71187;SDS011;58893;53.130;8.158;2022-11-20T04:37:02;19.20;;;6.47;;
71187;SDS011;58893;53.130;8.158;2022-11-20T04:39:28;9.60;;;4.80;;
71187;SDS011;58893;53.130;8.158;2022-11-20T04:41:53;9.77;;;5.20;;
71187;SDS011;58893;53.130;8.158;2022-11-20T04:44:39;15.83;;;5.23;;
71187;SDS011;58893;53.130;8.158;2022-11-20T04:47:05;9.83;;;5.17;;
71187;SDS011;58893;53.130;8.158;2022-11-20T04:49:30;14.90;;;5.93;;
71187;SDS011;58893;53.130;8.158;2022-11-20T04:51:56;10.47;;;5.77;;
71187;SDS011;58893;53.130;8.158;2022-11-20T04:54:22;14.03;;;6.20;;
71187;SDS011;58893;53.130;8.158;2022-11-20T04:56:48;11.50;;;4.70;;
71187;SDS011;58893;53.130;8.158;2022-11-20T04:59:14;15.63;;;6.10;;
71187;SDS011;58893;53.130;8.158;2022-11-20T05:01:40;11.33;;;4.90;;
71187;SDS011;58893;53.130;8.158;2022-11-20T05:04:05;12.87;;;5.90;;
71187;SDS011;58893;53.130;8.158;2022-11-20T05:06:31;12.83;;;5.53;;
71187;SDS011;58893;53.130;8.158;2022-11-20T05:08:57;11.00;;;5.23;;
71187;SDS011;58893;53.130;8.158;2022-11-20T05:11:23;15.90;;;6.17;;
71187;SDS011;58893;53.130;8.158;2022-11-20T05:13:49;8.57;;;5.03;;
71187;SDS011;58893;53.130;8.158;2022-11-20T05:16:20;14.87;;;5.40;;
71187;SDS011;58893;53.130;8.158;2022-11-20T05:18:47;10.83;;;5.70;;
71187;SDS011;58893;53.130;8.158;2022-11-20T05:21:13;15.33;;;5.70;;
71187;SDS011;58893;53.130;8.158;2022-11-20T05:23:40;9.03;;;4.90;;
71187;SDS011;58893;53.130;8.158;2022-11-20T05:26:07;10.83;;;5.30;;
71187;SDS011;58893;53.130;8.158;2022-11-20T05:28:37;9.30;;;5.40;;
71187;SDS011;58893;53.130;8.158;2022-11-20T05:31:03;9.97;;;4.60;;
71187;SDS011;58893;53.130;8.158;2022-11-20T05:33:34;11.50;;;5.37;;
71187;SDS011;58893;53.130;8.158;2022-11-20T05:36:00;11.07;;;5.00;;
71187;SDS011;58893;53.130;8.158;2022-11-20T05:38:29;9.10;;;4.67;;
71187;SDS011;58893;53.130;8.158;2022-11-20T05:40:55;12.60;;;5.30;;
71187;SDS011;58893;53.130;8.158;2022-11-20T05:43:31;12.70;;;5.60;;
71187;SDS011;58893;53.130;8.158;2022-11-20T05:45:58;10.00;;;5.03;;
71187;SDS011;58893;53.130;8.158;2022-11-20T05:48:23;10.63;;;5.57;;
71187;SDS011;58893;53.130;8.158;2022-11-20T05:50:50;11.57;;;5.07;;
71187;SDS011;58893;53.130;8.158;2022-11-20T05:53:16;12.77;;;5.87;;
71187;SDS011;58893;53.130;8.158;2022-11-20T05:55:41;14.13;;;5.80;;
71187;SDS011;58893;53.130;8.158;2022-11-20T05:58:07;12.43;;;5.17;;
71187;SDS011;58893;53.130;8.158;2022-11-20T06:00:33;9.80;;;5.00;;
71187;SDS011;58893;53.130;8.158;2022-11-20T06:02:58;13.30;;;5.90;;
71187;SDS011;58893;53.130;8.158;2022-11-20T06:05:24;17.17;;;6.33;;
71187;SDS011;58893;53.130;8.158;2022-11-20T06:07:49;11.57;;;5.47;;
71187;SDS011;58893;53.130;8.158;2022-11-20T06:10:15;9.30;;;5.57;;
71187;SDS011;58893;53.130;8.158;2022-11-20T06:12:41;14.33;;;5.47;;
71187;SDS011;58893;53.130;8.158;2022-11-20T06:15:06;12.60;;;5.77;;
71187;SDS011;58893;53.130;8.158;2022-11-20T06:17:32;12.07;;;5.47;;
71187;SDS011;58893;53.130;8.158;2022-11-20T06:19:58;8.70;;;4.87;;
71187;SDS011;58893;53.130;8.158;2022-11-20T06:22:24;13.23;;;5.57;;
71187;SDS011;58893;53.130;8.158;2022-11-20T06:24:49;14.87;;;7.50;;
71187;SDS011;58893;53.130;8.158;2022-11-20T06:27:15;14.87;;;6.83;;
71187;SDS011;58893;53.130;8.158;2022-11-20T06:29:41;12.07;;;5.70;;
71187;SDS011;58893;53.130;8.158;2022-11-20T06:32:07;13.07;;;7.00;;
71187;SDS011;58893;53.130;8.158;2022-11-20T06:34:32;14.23;;;6.73;;
71187;SDS011;58893;53.130;8.158;2022-11-20T06:36:58;13.43;;;6.37;;
71187;SDS011;58893;53.130;8.158;2022-11-20T06:39:24;12.80;;;6.60;;
71187;SDS011;58893;53.130;8.158;2022-11-20T06:41:49;13.40;;;6.17;;
71187;SDS011;58893;53.130;8.158;2022-11-20T06:44:15;16.87;;;6.70;;
71187;SDS011;58893;53.130;8.158;2022-11-20T06:46:40;13.83;;;6.50;;
71187;SDS011;58893;53.130;8.158;2022-11-20T06:49:06;20.57;;;7.20;;
71187;SDS011;58893;53.130;8.158;2022-11-20T06:51:32;16.07;;;6.97;;
71187;SDS011;58893;53.130;8.158;2022-11-20T06:53:57;8.10;;;5.17;;
71187;SDS011;58893;53.130;8.158;2022-11-20T06:56:23;9.20;;;5.50;;
71187;SDS011;58893;53.130;8.158;2022-11-20T06:58:49;15.77;;;5.77;;
71187;SDS011;58893;53.130;8.158;2022-11-20T07:01:14;15.27;;;6.50;;
71187;SDS011;58893;53.130;8.158;2022-11-20T07:03:40;12.10;;;6.37;;
71187;SDS011;58893;53.130;8.158;2022-11-20T07:06:07;15.10;;;7.00;;
71187;SDS011;58893;53.130;8.158;2022-11-20T07:08:33;13.03;;;6.67;;
71187;SDS011;58893;53.130;8.158;2022-11-20T07:10:59;13.97;;;6.50;;
71187;SDS011;58893;53.130;8.158;2022-11-20T07:13:26;12.77;;;6.80;;
71187;SDS011;58893;53.130;8.158;2022-11-20T07:15:53;15.43;;;7.37;;
71187;SDS011;58893;53.130;8.158;2022-11-20T07:18:19;15.17;;;6.67;;
71187;SDS011;58893;53.130;8.158;2022-11-20T07:20:45;14.53;;;6.63;;
71187;SDS011;58893;53.130;8.158;2022-11-20T07:23:11;24.10;;;7.80;;
71187;SDS011;58893;53.130;8.158;2022-11-20T07:25:37;15.00;;;6.27;;
71187;SDS011;58893;53.130;8.158;2022-11-20T07:28:02;16.73;;;6.93;;
71187;SDS011;58893;53.130;8.158;2022-11-20T07:30:28;14.93;;;6.53;;
71187;SDS011;58893;53.130;8.158;2022-11-20T07:32:55;15.30;;;6.87;;
71187;SDS011;58893;53.130;8.158;2022-11-20T07:35:22;15.67;;;7.20;;
71187;SDS011;58893;53.130;8.158;2022-11-20T07:37:48;21.47;;;8.50;;
71187;SDS011;58893;53.130;8.158;2022-11-20T07:40:14;13.00;;;6.60;;
71187;SDS011;58893;53.130;8.158;2022-11-20T07:42:47;14.70;;;6.60;;
71187;SDS011;58893;53.130;8.158;2022-11-20T07:45:17;15.27;;;7.27;;
71187;SDS011;58893;53.130;8.158;2022-11-20T07:47:43;14.00;;;6.73;;
71187;SDS011;58893;53.130;8.158;2022-11-20T07:50:09;13.70;;;6.83;;
71187;SDS011;58893;53.130;8.158;2022-11-20T07:52:35;19.40;;;8.07;;
71187;SDS011;58893;53.130;8.158;2022-11-20T07:55:01;16.47;;;7.90;;
71187;SDS011;58893;53.130;8.158;2022-11-20T07:57:27;14.07;;;6.63;;
71187;SDS011;58893;53.130;8.158;2022-11-20T07:59:52;16.50;;;7.80;;
71187;SDS011;58893;53.130;8.158;2022-11-20T08:02:18;23.77;;;7.87;;
71187;SDS011;58893;53.130;8.158;2022-11-20T08:04:43;14.23;;;6.90;;
71187;SDS011;58893;53.130;8.158;2022-11-20T08:07:09;13.00;;;7.00;;
71187;SDS011;58893;53.130;8.158;2022-11-20T08:09:35;12.50;;;6.60;;
71187;SDS011;58893;53.130;8.158;2022-11-20T08:12:00;13.33;;;6.73;;
71187;SDS011;58893;53.130;8.158;2022-11-20T08:14:44;17.30;;;8.40;;
71187;SDS011;58893;53.130;8.158;2022-11-20T08:17:10;15.73;;;7.23;;
71187;SDS011;58893;53.130;8.158;2022-11-20T08:19:36;12.70;;;6.70;;
71187;SDS011;58893;53.130;8.158;2022-11-20T08:22:02;20.97;;;8.87;;
71187;SDS011;58893;53.130;8.158;2022-11-20T08:24:27;16.37;;;7.63;;
71187;SDS011;58893;53.130;8.158;2022-11-20T08:26:53;18.87;;;7.27;;
71187;SDS011;58893;53.130;8.158;2022-11-20T08:29:18;15.80;;;7.03;;
71187;SDS011;58893;53.130;8.158;2022-11-20T08:31:44;20.20;;;8.40;;
71187;SDS011;58893;53.130;8.158;2022-11-20T08:34:10;13.87;;;6.60;;
71187;SDS011;58893;53.130;8.158;2022-11-20T08:36:35;15.33;;;7.27;;
71187;SDS011;58893;53.130;8.158;2022-11-20T08:39:02;13.70;;;7.07;;
71187;SDS011;58893;53.130;8.158;2022-11-20T08:41:28;15.93;;;7.23;;
71187;SDS011;58893;53.130;8.158;2022-11-20T08:44:01;21.53;;;8.47;;
71187;SDS011;58893;53.130;8.158;2022-11-20T08:46:35;20.03;;;7.90;;
71187;SDS011;58893;53.130;8.158;2022-11-20T08:49:06;20.60;;;7.50;;
71187;SDS011;58893;53.130;8.158;2022-11-20T08:51:34;12.50;;;6.43;;
71187;SDS011;58893;53.130;8.158;2022-11-20T08:54:00;15.90;;;7.10;;
71187;SDS011;58893;53.130;8.158;2022-11-20T08:56:26;14.23;;;7.33;;
71187;SDS011;58893;53.130;8.158;2022-11-20T08:58:52;15.10;;;6.50;;
71187;SDS011;58893;53.130;8.158;2022-11-20T09:01:21;14.33;;;6.80;;
71187;SDS011;58893;53.130;8.158;2022-11-20T09:03:48;14.70;;;7.37;;
71187;SDS011;58893;53.130;8.158;2022-11-20T09:06:14;14.50;;;6.30;;
71187;SDS011;58893;53.130;8.158;2022-11-20T09:08:40;13.10;;;6.83;;
71187;SDS011;58893;53.130;8.158;2022-11-20T09:11:06;13.27;;;6.30;;
71187;SDS011;58893;53.130;8.158;2022-11-20T09:13:32;18.83;;;7.20;;
71187;SDS011;58893;53.130;8.158;2022-11-20T09:16:06;14.17;;;6.97;;
71187;SDS011;58893;53.130;8.158;2022-11-20T09:18:34;12.80;;;5.97;;
71187;SDS011;58893;53.130;8.158;2022-11-20T09:21:04;15.00;;;6.83;;
71187;SDS011;58893;53.130;8.158;2022-11-20T09:23:33;17.20;;;7.90;;
71187;SDS011;58893;53.130;8.158;2022-11-20T09:26:03;13.20;;;6.60;;
71187;SDS011;58893;53.130;8.158;2022-11-20T09:28:35;19.50;;;8.90;;
71187;SDS011;58893;53.130;8.158;2022-11-20T09:31:03;15.70;;;8.10;;
71187;SDS011;58893;53.130;8.158;2022-11-20T09:33:31;17.33;;;6.43;;
71187;SDS011;58893;53.130;8.158;2022-11-20T09:35:56;12.80;;;6.80;;
71187;SDS011;58893;53.130;8.158;2022-11-20T09:38:22;12.83;;;6.70;;
71187;SDS011;58893;53.130;8.158;2022-11-20T09:40:51;14.10;;;6.90;;
71187;SDS011;58893;53.130;8.158;2022-11-20T09:56:27;15.10;;;7.63;;
71187;SDS011;58893;53.130;8.158;2022-11-20T09:58:54;12.53;;;6.27;;
71187;SDS011;58893;53.130;8.158;2022-11-20T10:01:32;13.17;;;6.40;;
71187;SDS011;58893;53.130;8.158;2022-11-20T10:14:35;18.30;;;5.57;;
71187;SDS011;58893;53.130;8.158;2022-11-20T10:17:12;10.80;;;5.47;;
71187;SDS011;58893;53.130;8.158;2022-11-20T10:22:41;15.57;;;5.73;;
71187;SDS011;58893;53.130;8.158;2022-11-20T10:28:20;12.73;;;6.27;;
71187;SDS011;58893;53.130;8.158;2022-11-20T10:31:10;11.10;;;6.00;;
71187;SDS011;58893;53.130;8.158;2022-11-20T10:33:43;20.43;;;5.43;;
71187;SDS011;58893;53.130;8.158;2022-11-20T10:36:24;12.87;;;5.77;;
71187;SDS011;58893;53.130;8.158;2022-11-20T10:39:04;15.87;;;6.20;;
71187;SDS011;58893;53.130;8.158;2022-11-20T10:41:42;9.10;;;5.80;;
71187;SDS011;58893;53.130;8.158;2022-11-20T10:44:14;11.30;;;5.60;;
71187;SDS011;58893;53.130;8.158;2022-11-20T10:47:19;9.57;;;5.20;;
71187;SDS011;58893;53.130;8.158;2022-11-20T10:49:46;12.10;;;6.37;;
71187;SDS011;58893;53.130;8.158;2022-11-20T11:00:22;12.33;;;6.27;;
71187;SDS011;58893;53.130;8.158;2022-11-20T11:02:49;12.70;;;6.23;;
71187;SDS011;58893;53.130;8.158;2022-11-20T11:07:53;12.33;;;5.63;;
71187;SDS011;58893;53.130;8.158;2022-11-20T11:12:49;11.70;;;5.53;;
71187;SDS011;58893;53.130;8.158;2022-11-20T11:15:25;11.50;;;5.10;;
71187;SDS011;58893;53.130;8.158;2022-11-20T11:18:01;11.97;;;5.23;;
71187;SDS011;58893;53.130;8.158;2022-11-20T11:20:27;11.67;;;6.20;;
71187;SDS011;58893;53.130;8.158;2022-11-20T11:22:55;15.40;;;6.37;;
71187;SDS011;58893;53.130;8.158;2022-11-20T11:27:55;13.63;;;5.40;;
71187;SDS011;58893;53.130;8.158;2022-11-20T11:30:24;14.13;;;4.50;;
71187;SDS011;58893;53.130;8.158;2022-11-20T11:33:01;13.07;;;5.10;;
71187;SDS011;58893;53.130;8.158;2022-11-20T11:35:29;8.57;;;5.13;;
71187;SDS011;58893;53.130;8.158;2022-11-20T11:38:02;10.10;;;4.63;;
71187;SDS011;58893;53.130;8.158;2022-11-20T11:40:33;8.37;;;4.50;;
71187;SDS011;58893;53.130;8.158;2022-11-20T11:43:03;18.13;;;5.93;;
71187;SDS011;58893;53.130;8.158;2022-11-20T11:45:54;11.47;;;4.83;;
71187;SDS011;58893;53.130;8.158;2022-11-20T11:48:21;10.40;;;5.57;;
71187;SDS011;58893;53.130;8.158;2022-11-20T11:50:50;12.30;;;5.90;;
71187;SDS011;58893;53.130;8.158;2022-11-20T11:53:17;10.20;;;5.00;;
71187;SDS011;58893;53.130;8.158;2022-11-20T11:56:04;9.90;;;5.60;;
71187;SDS011;58893;53.130;8.158;2022-11-20T11:58:52;7.47;;;4.50;;
71187;SDS011;58893;53.130;8.158;2022-11-20T12:06:47;16.63;;;5.70;;
71187;SDS011;58893;53.130;8.158;2022-11-20T12:09:18;12.40;;;5.43;;
71187;SDS011;58893;53.130;8.158;2022-11-20T12:11:55;15.57;;;6.57;;
71187;SDS011;58893;53.130;8.158;2022-11-20T12:17:08;14.20;;;6.63;;
71187;SDS011;58893;53.130;8.158;2022-11-20T12:19:36;8.40;;;5.00;;
71187;SDS011;58893;53.130;8.158;2022-11-20T12:33:51;8.77;;;4.63;;
71187;SDS011;58893;53.130;8.158;2022-11-20T12:39:24;7.60;;;4.27;;
71187;SDS011;58893;53.130;8.158;2022-11-20T12:47:46;11.50;;;4.67;;
71187;SDS011;58893;53.130;8.158;2022-11-20T12:53:52;10.20;;;4.40;;
71187;SDS011;58893;53.130;8.158;2022-11-20T12:56:50;10.27;;;4.73;;
71187;SDS011;58893;53.130;8.158;2022-11-20T12:59:48;11.93;;;5.77;;
71187;SDS011;58893;53.130;8.158;2022-11-20T13:07:54;7.60;;;4.03;;
71187;SDS011;58893;53.130;8.158;2022-11-20T13:10:43;9.83;;;4.70;;
71187;SDS011;58893;53.130;8.158;2022-11-20T13:18:25;10.50;;;4.90;;
71187;SDS011;58893;53.130;8.158;2022-11-20T13:20:51;9.87;;;5.10;;
71187;SDS011;58893;53.130;8.158;2022-11-20T13:23:23;9.60;;;4.43;;
71187;SDS011;58893;53.130;8.158;2022-11-20T13:25:50;13.33;;;4.60;;
71187;SDS011;58893;53.130;8.158;2022-11-20T13:28:27;9.00;;;4.90;;
71187;SDS011;58893;53.130;8.158;2022-11-20T13:30:55;8.10;;;4.30;;
71187;SDS011;58893;53.130;8.158;2022-11-20T13:33:23;10.27;;;5.07;;
71187;SDS011;58893;53.130;8.158;2022-11-20T13:35:57;6.77;;;4.30;;
71187;SDS011;58893;53.130;8.158;2022-11-20T13:38:25;11.03;;;4.43;;
71187;SDS011;58893;53.130;8.158;2022-11-20T13:43:33;7.97;;;4.60;;
71187;SDS011;58893;53.130;8.158;2022-11-20T13:46:04;7.33;;;3.70;;
71187;SDS011;58893;53.130;8.158;2022-11-20T13:48:38;9.20;;;5.10;;
71187;SDS011;58893;53.130;8.158;2022-11-20T13:53:52;6.50;;;4.23;;
71187;SDS011;58893;53.130;8.158;2022-11-20T14:02:02;14.37;;;6.80;;
71187;SDS011;58893;53.130;8.158;2022-11-20T14:04:35;12.20;;;5.00;;
71187;SDS011;58893;53.130;8.158;2022-11-20T14:07:06;8.70;;;4.80;;
71187;SDS011;58893;53.130;8.158;2022-11-20T14:09:33;11.63;;;5.63;;
71187;SDS011;58893;53.130;8.158;2022-11-20T14:11:59;11.03;;;5.47;;
71187;SDS011;58893;53.130;8.158;2022-11-20T14:14:26;9.27;;;5.30;;
71187;SDS011;58893;53.130;8.158;2022-11-20T14:17:17;7.27;;;4.20;;
71187;SDS011;58893;53.130;8.158;2022-11-20T14:19:56;7.73;;;4.13;;
71187;SDS011;58893;53.130;8.158;2022-11-20T14:22:26;9.97;;;5.20;;
71187;SDS011;58893;53.130;8.158;2022-11-20T14:27:42;11.53;;;5.50;;
71187;SDS011;58893;53.130;8.158;2022-11-20T14:30:37;9.53;;;4.70;;
71187;SDS011;58893;53.130;8.158;2022-11-20T14:33:13;12.40;;;5.30;;
71187;SDS011;58893;53.130;8.158;2022-11-20T14:35:43;10.37;;;4.60;;
71187;SDS011;58893;53.130;8.158;2022-11-20T14:38:15;7.87;;;4.50;;
71187;SDS011;58893;53.130;8.158;2022-11-20T14:40:44;7.07;;;4.60;;
71187;SDS011;58893;53.130;8.158;2022-11-20T14:43:26;8.60;;;4.50;;
71187;SDS011;58893;53.130;8.158;2022-11-20T14:45:55;8.23;;;4.33;;
71187;SDS011;58893;53.130;8.158;2022-11-20T14:48:31;12.63;;;5.20;;
71187;SDS011;58893;53.130;8.158;2022-11-20T14:51:01;10.67;;;5.20;;
71187;SDS011;58893;53.130;8.158;2022-11-20T14:53:27;7.40;;;4.40;;
71187;SDS011;58893;53.130;8.158;2022-11-20T14:56:00;7.80;;;5.00;;
71187;SDS011;58893;53.130;8.158;2022-11-20T14:58:31;8.57;;;5.13;;
71187;SDS011;58893;53.130;8.158;2022-11-20T15:01:05;10.00;;;4.63;;
71187;SDS011;58893;53.130;8.158;2022-11-20T15:03:36;8.87;;;4.63;;
71187;SDS011;58893;53.130;8.158;2022-11-20T15:06:07;15.77;;;6.60;;
71187;SDS011;58893;53.130;8.158;2022-11-20T15:08:36;41.70;;;14.37;;
71187;SDS011;58893;53.130;8.158;2022-11-20T15:11:02;30.70;;;11.77;;
71187;SDS011;58893;53.130;8.158;2022-11-20T15:15:58;21.53;;;7.47;;
71187;SDS011;58893;53.130;8.158;2022-11-20T15:18:27;12.50;;;6.80;;
71187;SDS011;58893;53.130;8.158;2022-11-20T15:20:57;13.13;;;5.50;;
71187;SDS011;58893;53.130;8.158;2022-11-20T15:23:27;12.40;;;6.63;;
71187;SDS011;58893;53.130;8.158;2022-11-20T15:25:53;17.47;;;6.90;;
71187;SDS011;58893;53.130;8.158;2022-11-20T15:30:47;13.27;;;5.70;;
71187;SDS011;58893;53.130;8.158;2022-11-20T15:33:14;15.93;;;7.37;;
71187;SDS011;58893;53.130;8.158;2022-11-20T15:35:41;10.87;;;5.30;;
71187;SDS011;58893;53.130;8.158;2022-11-20T15:38:07;13.33;;;5.70;;
71187;SDS011;58893;53.130;8.158;2022-11-20T15:40:33;15.33;;;7.10;;
71187;SDS011;58893;53.130;8.158;2022-11-20T15:42:59;18.17;;;8.17;;
71187;SDS011;58893;53.130;8.158;2022-11-20T15:45:28;21.40;;;9.50;;
71187;SDS011;58893;53.130;8.158;2022-11-20T15:48:05;17.47;;;7.90;;
71187;SDS011;58893;53.130;8.158;2022-11-20T15:50:37;15.23;;;8.37;;
71187;SDS011;58893;53.130;8.158;2022-11-20T15:53:09;16.90;;;7.50;;
71187;SDS011;58893;53.130;8.158;2022-11-20T15:55:35;15.57;;;7.30;;
71187;SDS011;58893;53.130;8.158;2022-11-20T15:58:01;20.03;;;8.73;;
71187;SDS011;58893;53.130;8.158;2022-11-20T16:00:26;27.63;;;9.87;;
71187;SDS011;58893;53.130;8.158;2022-11-20T16:02:52;22.97;;;9.33;;
71187;SDS011;58893;53.130;8.158;2022-11-20T16:05:17;18.00;;;8.80;;
71187;SDS011;58893;53.130;8.158;2022-11-20T16:07:43;15.50;;;7.43;;
71187;SDS011;58893;53.130;8.158;2022-11-20T16:10:09;26.27;;;8.20;;
71187;SDS011;58893;53.130;8.158;2022-11-20T16:12:35;19.73;;;9.17;;
71187;SDS011;58893;53.130;8.158;2022-11-20T16:15:20;20.60;;;8.93;;
71187;SDS011;58893;53.130;8.158;2022-11-20T16:18:04;25.73;;;8.87;;
71187;SDS011;58893;53.130;8.158;2022-11-20T16:20:29;16.33;;;7.67;;
71187;SDS011;58893;53.130;8.158;2022-11-20T16:22:55;22.43;;;10.13;;
71187;SDS011;58893;53.130;8.158;2022-11-20T16:25:21;25.17;;;10.50;;
71187;SDS011;58893;53.130;8.158;2022-11-20T16:27:46;27.83;;;9.70;;
71187;SDS011;58893;53.130;8.158;2022-11-20T16:30:12;21.17;;;10.20;;
71187;SDS011;58893;53.130;8.158;2022-11-20T16:32:38;21.40;;;9.60;;